Time;durP1;ratioP1;P1;durP2;ratioP2;P2;SDS_P1;SDS_P2;PMS_P1;PMS_P2;Temp;Humidity;BMP_temperature;BMP_pressure;BME280_temperature;BME280_humidity;BME280_pressure;Samples;Min_cycle;Max_cycle;Signal;HPM_P1;HPM_P2
2023/09/07 00:00:46;;;;;;;94.68;76.75;;;20.70;99.90;;;;;;5034731;28;20523;-55
2023/09/07 00:03:13;;;;;;;93.28;76.35;;;20.70;99.90;;;;;;5035026;28;20116;-53
2023/09/07 00:05:40;;;;;;;90.20;75.80;;;20.60;99.90;;;;;;5035291;28;20041;-54
2023/09/07 00:08:06;;;;;;;88.07;71.20;;;20.70;99.90;;;;;;5034909;28;20150;-54
2023/09/07 00:10:36;;;;;;;95.90;76.93;;;20.60;99.90;;;;;;5034880;28;20389;-50
2023/09/07 00:13:03;;;;;;;88.90;74.40;;;20.60;99.90;;;;;;5035241;28;20044;-54
2023/09/07 00:15:30;;;;;;;94.63;73.90;;;20.60;99.90;;;;;;5035264;28;20535;-57
2023/09/07 00:17:57;;;;;;;95.20;74.70;;;20.60;99.90;;;;;;5034633;28;20044;-51
2023/09/07 00:20:24;;;;;;;92.13;74.90;;;20.50;99.90;;;;;;5035357;28;20041;-52
2023/09/07 00:22:51;;;;;;;87.68;70.90;;;20.50;99.90;;;;;;5035226;28;20063;-56
2023/09/07 00:25:18;;;;;;;89.07;70.28;;;20.50;99.90;;;;;;5034718;28;20049;-54
2023/09/07 00:27:45;;;;;;;89.95;71.90;;;20.50;99.90;;;;;;5034658;28;20079;-53
2023/09/07 00:30:11;;;;;;;91.68;72.43;;;20.40;99.90;;;;;;5034210;28;20045;-53
2023/09/07 00:32:38;;;;;;;84.05;68.68;;;20.40;99.90;;;;;;5034500;28;20044;-53
2023/09/07 00:35:05;;;;;;;86.78;70.50;;;20.40;99.90;;;;;;5034514;28;20044;-51
2023/09/07 00:37:32;;;;;;;85.70;65.78;;;20.40;99.90;;;;;;5033414;28;20041;-52
2023/09/07 00:39:59;;;;;;;86.10;70.38;;;20.40;99.90;;;;;;5034503;28;20046;-53
2023/09/07 00:42:26;;;;;;;86.82;69.97;;;20.40;99.90;;;;;;5034343;28;20049;-54
2023/09/07 00:44:53;;;;;;;81.20;66.55;;;20.40;99.90;;;;;;5034622;28;20077;-52
2023/09/07 00:47:19;;;;;;;79.72;63.13;;;20.40;99.90;;;;;;5034294;28;20408;-54
2023/09/07 00:49:46;;;;;;;85.50;65.93;;;20.30;99.90;;;;;;5034142;28;20042;-52
2023/09/07 00:52:13;;;;;;;84.10;66.70;;;20.40;99.90;;;;;;5034215;28;20388;-55
2023/09/07 00:54:41;;;;;;;86.90;66.45;;;20.30;99.90;;;;;;5034214;28;20091;-51
2023/09/07 00:57:08;;;;;;;83.05;66.43;;;20.40;99.90;;;;;;5033943;28;20508;-55
2023/09/07 00:59:35;;;;;;;78.82;63.95;;;20.30;99.90;;;;;;5033106;28;20603;-49
2023/09/07 01:02:04;;;;;;;79.53;65.45;;;20.30;99.90;;;;;;5034234;28;20087;-52
2023/09/07 01:04:33;;;;;;;87.25;66.38;;;20.30;99.90;;;;;;5034344;28;20397;-53
2023/09/07 01:06:59;;;;;;;81.70;65.05;;;20.20;99.90;;;;;;5032623;28;20045;-53
2023/09/07 01:09:26;;;;;;;79.82;66.72;;;20.20;99.90;;;;;;5033942;28;20049;-52
2023/09/07 01:11:53;;;;;;;80.50;64.68;;;20.20;99.90;;;;;;5034113;28;20075;-53
2023/09/07 01:14:20;;;;;;;79.43;66.90;;;20.20;99.90;;;;;;5033012;28;20077;-52
2023/09/07 01:16:47;;;;;;;82.95;63.47;;;20.20;99.90;;;;;;5033649;28;20427;-58
2023/09/07 01:19:14;;;;;;;78.88;65.28;;;20.20;99.90;;;;;;5033709;28;20049;-49
2023/09/07 01:21:41;;;;;;;76.72;63.13;;;20.20;99.90;;;;;;5033697;28;20045;-56
2023/09/07 01:24:07;;;;;;;81.65;61.47;;;20.20;99.90;;;;;;5033985;28;20041;-48
2023/09/07 01:26:34;;;;;;;75.15;62.00;;;20.20;99.90;;;;;;5033801;28;20128;-55
2023/09/07 01:29:01;;;;;;;79.30;62.40;;;20.20;99.90;;;;;;5033879;28;20037;-53
2023/09/07 01:31:28;;;;;;;75.72;61.05;;;20.20;99.90;;;;;;5033692;28;20057;-55
2023/09/07 01:33:55;;;;;;;76.95;63.28;;;20.20;99.90;;;;;;5033657;28;20041;-54
2023/09/07 01:36:22;;;;;;;80.35;63.15;;;20.20;99.90;;;;;;5033274;28;20064;-49
2023/09/07 01:38:49;;;;;;;81.35;62.53;;;20.10;99.90;;;;;;5033666;28;20480;-54
2023/09/07 01:41:16;;;;;;;79.78;63.47;;;20.10;99.90;;;;;;5031225;28;20510;-56
2023/09/07 01:43:43;;;;;;;82.47;65.00;;;20.10;99.90;;;;;;5032295;28;20072;-54
2023/09/07 01:46:10;;;;;;;83.95;65.50;;;20.10;99.90;;;;;;5031874;28;20033;-50
2023/09/07 01:48:36;;;;;;;82.97;65.40;;;20.10;99.90;;;;;;5033213;28;20038;-54
2023/09/07 01:51:03;;;;;;;86.15;65.93;;;20.10;99.90;;;;;;5031892;28;20503;-54
2023/09/07 01:53:32;;;;;;;82.70;64.38;;;20.10;99.90;;;;;;5032320;28;20068;-49
2023/09/07 01:55:59;;;;;;;75.38;58.75;;;20.10;99.90;;;;;;5031476;28;20480;-50
2023/09/07 01:58:26;;;;;;;79.47;59.75;;;20.10;99.90;;;;;;5033281;28;20060;-55
2023/09/07 02:00:53;;;;;;;83.72;60.45;;;20.20;99.90;;;;;;5031894;28;20045;-52
2023/09/07 02:03:20;;;;;;;74.07;58.45;;;20.20;99.90;;;;;;5031906;28;20061;-57
2023/09/07 02:05:47;;;;;;;76.80;59.78;;;20.20;99.90;;;;;;5032787;28;20061;-53
2023/09/07 02:08:14;;;;;;;77.60;60.50;;;20.20;99.90;;;;;;5032959;28;20056;-52
2023/09/07 02:10:41;;;;;;;84.53;66.03;;;20.20;99.90;;;;;;5031832;28;20087;-55
2023/09/07 02:13:08;;;;;;;76.63;60.35;;;20.20;99.90;;;;;;5032541;28;20044;-52
2023/09/07 02:15:36;;;;;;;73.03;59.25;;;20.30;99.90;;;;;;5031520;28;20050;-52
2023/09/07 02:18:04;;;;;;;76.70;60.75;;;20.20;99.90;;;;;;5031172;28;20587;-50
2023/09/07 02:20:31;;;;;;;77.78;60.58;;;20.20;99.90;;;;;;5031895;28;20401;-53
2023/09/07 02:22:58;;;;;;;78.10;61.13;;;20.20;99.90;;;;;;5031554;28;20493;-51
2023/09/07 02:25:25;;;;;;;74.07;58.53;;;20.30;99.90;;;;;;5033278;28;20068;-52
2023/09/07 02:27:52;;;;;;;78.32;62.15;;;20.30;99.90;;;;;;5031168;28;20180;-51
2023/09/07 02:30:19;;;;;;;84.53;60.22;;;20.30;99.90;;;;;;5031248;28;20052;-52
2023/09/07 02:32:46;;;;;;;72.35;58.03;;;20.30;99.90;;;;;;5031393;28;20064;-55
2023/09/07 02:35:13;;;;;;;79.43;60.53;;;20.30;99.90;;;;;;5032618;28;20120;-54
2023/09/07 02:37:40;;;;;;;78.55;60.58;;;20.30;99.90;;;;;;5031473;28;20053;-53
2023/09/07 02:40:10;;;;;;;78.20;59.35;;;20.30;99.90;;;;;;5031250;28;20053;-52
2023/09/07 02:42:37;;;;;;;76.68;59.92;;;20.30;99.90;;;;;;5032891;28;20069;-52
2023/09/07 02:45:04;;;;;;;77.55;59.72;;;20.30;99.90;;;;;;5032850;28;20174;-52
2023/09/07 02:47:31;;;;;;;79.40;60.90;;;20.30;99.90;;;;;;5032844;28;20461;-55
2023/09/07 02:49:58;;;;;;;84.57;63.00;;;20.30;99.90;;;;;;5032384;28;20045;-53
2023/09/07 02:52:25;;;;;;;81.32;63.78;;;20.30;99.90;;;;;;5033403;28;20068;-47
2023/09/07 02:54:52;;;;;;;96.07;67.50;;;20.30;99.90;;;;;;5036276;28;20034;-51
2023/09/07 02:57:19;;;;;;;96.50;71.68;;;20.30;99.90;;;;;;5034530;28;20523;-47
2023/09/07 02:59:47;;;;;;;101.88;73.05;;;20.30;99.90;;;;;;5035165;28;20049;-54
2023/09/07 03:02:13;;;;;;;105.43;75.20;;;20.30;99.90;;;;;;5034602;28;20050;-52
2023/09/07 03:04:40;;;;;;;102.03;73.85;;;20.30;99.90;;;;;;5035222;28;20475;-50
2023/09/07 03:07:09;;;;;;;109.13;74.88;;;20.30;99.90;;;;;;5034575;28;20045;-48
2023/09/07 03:09:37;;;;;;;112.15;75.60;;;20.30;99.90;;;;;;5034433;28;20053;-51
2023/09/07 03:12:04;;;;;;;105.88;74.38;;;20.30;99.90;;;;;;5034804;28;20060;-50
2023/09/07 03:14:31;;;;;;;109.78;75.82;;;20.20;99.90;;;;;;5036566;28;20041;-50
2023/09/07 03:17:00;;;;;;;110.57;75.55;;;20.20;99.90;;;;;;5034576;28;20048;-55
2023/09/07 03:19:27;;;;;;;116.63;77.43;;;20.20;99.90;;;;;;5034680;28;20385;-55
2023/09/07 03:21:55;;;;;;;116.95;78.63;;;20.10;99.90;;;;;;5034515;28;20148;-51
2023/09/07 03:24:22;;;;;;;112.13;74.13;;;20.10;99.90;;;;;;5035118;28;20045;-53
2023/09/07 03:26:49;;;;;;;107.80;73.15;;;20.10;99.90;;;;;;5034677;28;20072;-52
2023/09/07 03:29:16;;;;;;;98.63;68.22;;;20.00;99.90;;;;;;5035482;28;20191;-52
2023/09/07 03:31:43;;;;;;;98.18;69.88;;;19.90;99.90;;;;;;5034294;28;20484;-48
2023/09/07 03:34:10;;;;;;;90.30;67.05;;;19.80;99.90;;;;;;5034253;28;20092;-53
2023/09/07 03:36:37;;;;;;;97.20;69.70;;;19.70;99.90;;;;;;5034303;28;20045;-53
2023/09/07 03:39:07;;;;;;;99.30;68.47;;;19.60;99.90;;;;;;5034032;28;20041;-58
2023/09/07 03:41:35;;;;;;;91.43;65.60;;;19.60;99.90;;;;;;5034376;28;20382;-52
2023/09/07 03:44:01;;;;;;;95.35;66.40;;;19.60;99.90;;;;;;5034692;28;20045;-53
2023/09/07 03:46:29;;;;;;;91.70;67.88;;;19.50;99.90;;;;;;5033924;28;20037;-48
2023/09/07 03:48:56;;;;;;;90.25;65.55;;;19.50;99.90;;;;;;5033805;28;20053;-57
2023/09/07 03:51:23;;;;;;;86.28;64.07;;;19.50;99.90;;;;;;5033691;28;20041;-50
2023/09/07 03:53:50;;;;;;;86.38;66.22;;;19.40;99.90;;;;;;5034055;28;20049;-53
2023/09/07 03:56:17;;;;;;;98.35;68.25;;;19.40;99.90;;;;;;5035358;28;20500;-53
2023/09/07 03:58:47;;;;;;;96.70;65.95;;;19.40;99.90;;;;;;5035024;28;20095;-53
2023/09/07 04:01:13;;;;;;;91.57;66.22;;;19.30;99.90;;;;;;5033602;28;20049;-53
2023/09/07 04:03:41;;;;;;;95.47;68.38;;;19.30;99.90;;;;;;5034110;28;20372;-48
2023/09/07 04:06:08;;;;;;;101.85;71.60;;;19.30;99.90;;;;;;5034813;28;20124;-52
2023/09/07 04:08:35;;;;;;;112.38;74.60;;;19.30;99.90;;;;;;5033514;28;20046;-52
2023/09/07 04:11:02;;;;;;;117.50;75.15;;;19.30;99.90;;;;;;5035216;28;20436;-52
2023/09/07 04:13:29;;;;;;;110.38;76.00;;;19.20;99.90;;;;;;5034028;28;20077;-55
2023/09/07 04:15:56;;;;;;;113.30;74.80;;;19.20;99.90;;;;;;5034377;28;20057;-55
2023/09/07 04:18:23;;;;;;;115.10;74.88;;;19.20;99.90;;;;;;5033515;28;20136;-56
2023/09/07 04:20:50;;;;;;;117.68;75.18;;;19.10;99.90;;;;;;5034041;28;20065;-52
2023/09/07 04:23:17;;;;;;;121.78;77.13;;;19.10;99.90;;;;;;5034600;28;20057;-53
2023/09/07 04:25:44;;;;;;;116.47;76.47;;;19.10;99.90;;;;;;5033862;28;20045;-53
2023/09/07 04:28:12;;;;;;;124.78;76.10;;;19.00;99.90;;;;;;5033532;28;20049;-51
2023/09/07 04:30:39;;;;;;;112.75;72.57;;;19.00;99.90;;;;;;5033327;28;20045;-57
2023/09/07 04:33:06;;;;;;;120.75;75.50;;;19.00;99.90;;;;;;5033898;28;20109;-50
2023/09/07 04:35:35;;;;;;;116.35;74.85;;;19.00;99.90;;;;;;5033392;28;20366;-55
2023/09/07 04:38:01;;;;;;;121.55;75.47;;;18.90;99.90;;;;;;5033621;28;20040;-51
2023/09/07 04:40:28;;;;;;;119.20;75.47;;;18.80;99.90;;;;;;5033210;28;20045;-53
2023/09/07 04:42:55;;;;;;;127.43;77.30;;;18.80;99.90;;;;;;5034771;28;20045;-54
2023/09/07 04:45:22;;;;;;;133.80;81.95;;;18.80;99.90;;;;;;5034437;28;20045;-49
2023/09/07 04:47:49;;;;;;;128.77;83.15;;;18.70;99.90;;;;;;5033045;28;20042;-53
2023/09/07 04:50:15;;;;;;;131.02;80.75;;;18.70;99.90;;;;;;5034288;28;20465;-50
2023/09/07 04:52:42;;;;;;;122.80;78.18;;;18.60;99.90;;;;;;5034373;28;20037;-49
2023/09/07 04:55:09;;;;;;;119.93;78.40;;;18.60;99.90;;;;;;5034765;28;20495;-50
2023/09/07 04:57:36;;;;;;;117.88;75.97;;;18.60;99.90;;;;;;5032608;28;20081;-52
2023/09/07 05:00:04;;;;;;;114.85;75.63;;;18.60;99.90;;;;;;5016340;28;20049;-51
2023/09/07 05:02:31;;;;;;;112.85;72.97;;;18.60;99.90;;;;;;5034093;28;20053;-50
2023/09/07 05:04:58;;;;;;;126.90;78.85;;;18.50;99.90;;;;;;5034565;28;20111;-49
2023/09/07 05:07:25;;;;;;;126.38;81.22;;;18.60;99.90;;;;;;5032759;28;20049;-53
2023/09/07 05:09:52;;;;;;;124.15;79.38;;;18.60;99.90;;;;;;5033026;28;20139;-49
2023/09/07 05:12:19;;;;;;;123.78;78.22;;;18.60;99.90;;;;;;5032324;28;20069;-54
2023/09/07 05:14:46;;;;;;;132.45;83.75;;;18.60;99.90;;;;;;5032339;28;20041;-51
2023/09/07 05:17:13;;;;;;;128.48;81.88;;;18.70;99.90;;;;;;5032485;28;20392;-56
2023/09/07 05:19:40;;;;;;;133.95;86.30;;;18.70;99.90;;;;;;5032572;28;20049;-53
2023/09/07 05:22:11;;;;;;;136.27;87.38;;;18.70;99.90;;;;;;5034047;28;20045;-51
2023/09/07 05:24:38;;;;;;;134.60;87.05;;;18.60;99.90;;;;;;5032800;28;20404;-49
2023/09/07 05:27:06;;;;;;;136.80;88.05;;;18.60;99.90;;;;;;5033735;28;20043;-51
2023/09/07 05:29:33;;;;;;;129.25;88.15;;;18.70;99.90;;;;;;5033909;28;20412;-52
2023/09/07 05:32:00;;;;;;;121.65;85.90;;;18.70;99.90;;;;;;5032555;28;20041;-56
2023/09/07 05:34:30;;;;;;;123.07;84.55;;;18.70;99.90;;;;;;5032739;28;20056;-53
2023/09/07 05:36:57;;;;;;;125.57;86.57;;;18.70;99.90;;;;;;5032482;28;20049;-52
2023/09/07 05:39:24;;;;;;;123.43;85.63;;;18.70;99.90;;;;;;5032259;28;20400;-52
2023/09/07 05:41:51;;;;;;;133.00;85.78;;;18.70;99.90;;;;;;5031931;28;20045;-53
2023/09/07 05:44:17;;;;;;;133.48;88.63;;;18.70;99.90;;;;;;5033473;28;20504;-51
2023/09/07 05:46:44;;;;;;;122.72;82.32;;;18.80;99.90;;;;;;5031792;28;20515;-51
2023/09/07 05:49:11;;;;;;;132.98;89.13;;;18.80;99.90;;;;;;5033357;28;20124;-52
2023/09/07 05:51:38;;;;;;;126.43;86.78;;;18.80;99.90;;;;;;5032036;28;20092;-50
2023/09/07 05:54:05;;;;;;;122.90;84.30;;;18.80;99.90;;;;;;5033316;28;20564;-52
2023/09/07 05:56:33;;;;;;;130.48;85.75;;;18.80;99.90;;;;;;5033290;28;20077;-53
2023/09/07 05:59:00;;;;;;;129.38;84.53;;;18.80;99.90;;;;;;5031921;28;20536;-50
2023/09/07 06:01:26;;;;;;;126.25;86.32;;;18.90;99.90;;;;;;5031716;28;20053;-55
2023/09/07 06:03:53;;;;;;;127.22;86.93;;;18.90;99.90;;;;;;5031502;28;20068;-54
2023/09/07 06:06:21;;;;;;;118.20;84.75;;;18.90;99.90;;;;;;5031751;28;20144;-51
2023/09/07 06:08:48;;;;;;;120.32;85.30;;;19.00;99.90;;;;;;5032112;28;20053;-52
2023/09/07 06:11:15;;;;;;;122.22;82.60;;;18.90;99.90;;;;;;5031770;28;20045;-50
2023/09/07 06:13:42;;;;;;;119.97;83.95;;;19.00;99.90;;;;;;5031733;28;20047;-49
2023/09/07 06:16:09;;;;;;;117.03;83.55;;;19.00;99.90;;;;;;5031640;28;20041;-54
2023/09/07 06:18:36;;;;;;;114.78;80.63;;;19.10;99.90;;;;;;5033272;28;20048;-54
2023/09/07 06:21:04;;;;;;;111.32;77.05;;;19.20;99.90;;;;;;5032241;28;20139;-52
2023/09/07 06:23:31;;;;;;;109.68;75.55;;;19.20;99.90;;;;;;5032037;28;20132;-55
2023/09/07 06:25:58;;;;;;;108.95;76.43;;;19.30;99.90;;;;;;5031836;28;20129;-50
2023/09/07 06:28:25;;;;;;;103.05;76.13;;;19.30;99.90;;;;;;5035536;28;20045;-51
2023/09/07 06:30:52;;;;;;;105.45;76.10;;;19.30;99.90;;;;;;5035778;28;20172;-53
2023/09/07 06:33:19;;;;;;;108.68;78.93;;;19.20;99.90;;;;;;5035791;28;20041;-51
2023/09/07 06:35:47;;;;;;;105.53;76.38;;;19.20;99.90;;;;;;5035329;28;20077;-53
2023/09/07 06:38:14;;;;;;;103.60;75.55;;;19.20;99.90;;;;;;5035043;28;20141;-53
2023/09/07 06:40:42;;;;;;;103.82;74.70;;;19.20;99.90;;;;;;5034081;28;20049;-56
2023/09/07 06:43:08;;;;;;;102.88;74.35;;;19.20;99.90;;;;;;5036822;28;20072;-49
2023/09/07 06:45:36;;;;;;;103.05;76.05;;;19.20;99.90;;;;;;5022132;28;20481;-53
2023/09/07 06:48:03;;;;;;;101.68;74.05;;;19.20;99.90;;;;;;5025953;28;20192;-47
2023/09/07 06:50:31;;;;;;;105.63;76.68;;;19.20;99.90;;;;;;5034528;28;20046;-47
2023/09/07 06:52:58;;;;;;;100.45;76.13;;;19.20;99.90;;;;;;5033801;28;20046;-51
2023/09/07 06:55:25;;;;;;;97.43;74.53;;;19.30;99.90;;;;;;5034239;28;20041;-49
2023/09/07 06:57:52;;;;;;;107.30;76.32;;;19.30;99.90;;;;;;5035278;28;20053;-52
2023/09/07 07:00:19;;;;;;;98.35;73.20;;;19.30;99.90;;;;;;5034388;28;20041;-51
2023/09/07 07:02:46;;;;;;;95.72;72.07;;;19.30;99.90;;;;;;5033553;28;20041;-55
2023/09/07 07:05:14;;;;;;;94.93;72.57;;;19.30;99.90;;;;;;5034340;28;20045;-53
2023/09/07 07:07:42;;;;;;;97.97;75.80;;;19.40;99.90;;;;;;5034019;28;20389;-53
2023/09/07 07:10:09;;;;;;;95.90;72.65;;;19.40;99.90;;;;;;5034001;28;20076;-53
2023/09/07 07:12:39;;;;;;;89.88;72.20;;;19.40;99.90;;;;;;5034280;28;20037;-52
2023/09/07 07:15:07;;;;;;;91.05;73.28;;;19.40;99.90;;;;;;5034289;28;20038;-50
2023/09/07 07:17:34;;;;;;;93.25;74.75;;;19.40;99.90;;;;;;5033690;28;20511;-51
2023/09/07 07:20:01;;;;;;;92.72;72.55;;;19.40;99.90;;;;;;5035262;28;20061;-47
2023/09/07 07:22:28;;;;;;;89.07;73.22;;;19.40;99.90;;;;;;5033796;28;20058;-50
2023/09/07 07:24:55;;;;;;;86.50;70.80;;;19.40;99.90;;;;;;5033632;28;20049;-49
2023/09/07 07:27:22;;;;;;;89.07;69.75;;;19.40;99.90;;;;;;5033313;28;20049;-54
2023/09/07 07:29:49;;;;;;;84.13;68.93;;;19.40;99.90;;;;;;5034921;28;20073;-52
2023/09/07 07:32:16;;;;;;;77.68;64.93;;;19.50;99.90;;;;;;5033532;28;20152;-55
2023/09/07 07:34:43;;;;;;;82.22;66.60;;;19.50;99.90;;;;;;5033676;28;20552;-51
2023/09/07 07:37:10;;;;;;;73.97;62.08;;;19.60;99.90;;;;;;5033211;28;20041;-48
2023/09/07 07:39:37;;;;;;;80.78;63.85;;;19.70;99.90;;;;;;5033737;28;20049;-51
2023/09/07 07:42:06;;;;;;;78.88;63.92;;;19.70;99.90;;;;;;5032621;28;20046;-53
2023/09/07 07:44:33;;;;;;;74.82;63.22;;;19.80;99.90;;;;;;5033154;28;20497;-50
2023/09/07 07:47:00;;;;;;;76.65;62.03;;;19.80;99.90;;;;;;5029882;28;20145;-52
2023/09/07 07:49:27;;;;;;;74.07;62.70;;;19.80;99.90;;;;;;5033636;28;20535;-50
2023/09/07 07:51:56;;;;;;;70.22;60.83;;;19.90;99.90;;;;;;5033753;28;20051;-47
2023/09/07 07:54:24;;;;;;;71.03;59.78;;;19.90;99.90;;;;;;5033388;28;20101;-52
2023/09/07 07:56:52;;;;;;;68.57;60.45;;;19.90;99.90;;;;;;5033520;28;20527;-55
2023/09/07 07:59:19;;;;;;;73.20;60.83;;;20.00;99.90;;;;;;5030887;28;20072;-55
2023/09/07 08:01:46;;;;;;;70.65;57.80;;;20.00;99.90;;;;;;5034584;28;20045;-56
2023/09/07 08:04:13;;;;;;;69.70;57.85;;;20.10;99.90;;;;;;5034492;28;20045;-50
2023/09/07 08:06:41;;;;;;;65.05;57.03;;;20.20;99.90;;;;;;5034536;28;20492;-51
2023/09/07 08:09:08;;;;;;;66.07;56.95;;;20.20;99.90;;;;;;5032800;28;20132;-55
2023/09/07 08:11:35;;;;;;;62.40;54.25;;;20.30;99.90;;;;;;5034250;28;20420;-50
2023/09/07 08:14:02;;;;;;;64.18;57.42;;;20.40;99.90;;;;;;5033087;28;20378;-50
2023/09/07 08:16:29;;;;;;;63.85;56.42;;;20.40;99.90;;;;;;5032990;28;20046;-50
2023/09/07 08:18:56;;;;;;;66.60;58.65;;;20.40;99.90;;;;;;5016785;28;20064;-51
2023/09/07 08:21:24;;;;;;;61.75;55.05;;;20.40;99.90;;;;;;5032506;28;20132;-51
2023/09/07 08:23:52;;;;;;;61.72;54.95;;;20.50;99.90;;;;;;5034085;28;20492;-51
2023/09/07 08:26:20;;;;;;;65.00;55.05;;;20.60;99.90;;;;;;5032440;28;20042;-51
2023/09/07 08:28:47;;;;;;;61.65;54.90;;;20.70;99.90;;;;;;5032138;28;20132;-53
2023/09/07 08:31:20;;;;;;;60.13;53.03;;;20.70;99.90;;;;;;5034378;28;20073;-54
2023/09/07 08:33:51;;;;;;;61.38;54.60;;;20.80;99.90;;;;;;5034381;28;20072;-57
2023/09/07 08:36:18;;;;;;;58.83;51.83;;;20.80;99.90;;;;;;5034288;28;20036;-53
2023/09/07 08:38:45;;;;;;;58.03;51.65;;;20.90;99.90;;;;;;5034110;28;20037;-51
2023/09/07 08:41:11;;;;;;;60.53;50.80;;;20.90;99.90;;;;;;5034472;28;20045;-55
2023/09/07 08:43:38;;;;;;;56.80;48.85;;;20.90;99.90;;;;;;5034077;28;20096;-53
2023/09/07 08:46:05;;;;;;;61.78;52.70;;;21.00;99.90;;;;;;5034128;28;20136;-56
2023/09/07 08:48:32;;;;;;;57.15;50.95;;;21.00;99.90;;;;;;5034203;28;20116;-51
2023/09/07 08:51:00;;;;;;;57.78;50.60;;;21.10;99.90;;;;;;5033201;28;20049;-52
2023/09/07 08:53:27;;;;;;;53.28;47.47;;;21.10;99.90;;;;;;5033926;28;20045;-52
2023/09/07 08:55:54;;;;;;;55.47;48.78;;;21.20;99.90;;;;;;5033731;28;20041;-53
2023/09/07 08:58:21;;;;;;;60.28;49.25;;;21.20;99.90;;;;;;5033581;28;20048;-52
2023/09/07 09:00:49;;;;;;;54.13;47.22;;;21.30;99.90;;;;;;5033605;28;20045;-49
2023/09/07 09:03:16;;;;;;;52.88;47.17;;;21.30;99.90;;;;;;5033567;28;20033;-56
2023/09/07 09:05:43;;;;;;;51.38;45.72;;;21.40;99.90;;;;;;5032439;28;20037;-55
2023/09/07 09:08:10;;;;;;;53.20;46.50;;;21.50;99.90;;;;;;5033433;28;20048;-52
2023/09/07 09:10:37;;;;;;;49.22;44.00;;;21.50;99.90;;;;;;5033525;28;20033;-48
2023/09/07 09:13:04;;;;;;;50.42;45.05;;;21.50;99.90;;;;;;5033791;28;20052;-55
2023/09/07 09:15:31;;;;;;;49.92;44.00;;;21.70;99.90;;;;;;5033620;28;20091;-50
2023/09/07 09:17:58;;;;;;;50.67;43.15;;;21.70;99.90;;;;;;5033503;28;20484;-47
2023/09/07 09:20:25;;;;;;;48.60;43.25;;;21.80;99.90;;;;;;5033471;28;20098;-52
2023/09/07 09:22:51;;;;;;;49.03;41.35;;;21.80;99.90;;;;;;5033378;28;20045;-52
2023/09/07 09:25:18;;;;;;;44.97;40.20;;;21.90;99.90;;;;;;5033312;28;20048;-50
2023/09/07 09:27:45;;;;;;;49.17;39.80;;;22.00;99.90;;;;;;5033457;28;20060;-52
2023/09/07 09:30:15;;;;;;;46.75;39.10;;;22.10;99.90;;;;;;5033547;28;20103;-54
2023/09/07 09:32:42;;;;;;;42.28;37.63;;;22.20;99.90;;;;;;5033079;28;20479;-51
2023/09/07 09:35:09;;;;;;;40.70;33.92;;;22.20;99.90;;;;;;5033099;28;20358;-55
2023/09/07 09:37:36;;;;;;;38.63;33.25;;;22.30;99.90;;;;;;5033124;28;20041;-52
2023/09/07 09:40:03;;;;;;;39.13;34.38;;;22.40;99.90;;;;;;5033393;28;20038;-57
2023/09/07 09:42:30;;;;;;;35.35;31.55;;;22.50;99.90;;;;;;5033398;28;20045;-56
2023/09/07 09:44:57;;;;;;;40.78;34.13;;;22.60;99.90;;;;;;5032820;28;20041;-52
2023/09/07 09:47:24;;;;;;;39.72;32.35;;;22.70;99.90;;;;;;5032873;28;20041;-48
2023/09/07 09:49:51;;;;;;;38.17;32.22;;;22.70;99.90;;;;;;5031875;28;20376;-53
2023/09/07 09:52:18;;;;;;;39.83;31.88;;;22.80;99.90;;;;;;5032857;28;20037;-55
2023/09/07 09:54:44;;;;;;;34.03;30.33;;;22.80;99.90;;;;;;5032946;28;20052;-53
2023/09/07 09:57:11;;;;;;;31.40;27.88;;;22.90;99.90;;;;;;5032567;28;20049;-50
2023/09/07 09:59:39;;;;;;;35.15;29.67;;;22.90;99.90;;;;;;5032898;28;20033;-55
2023/09/07 10:02:06;;;;;;;32.58;27.92;;;23.00;99.90;;;;;;5025964;28;20116;-56
2023/09/07 10:04:34;;;;;;;31.98;27.90;;;23.10;99.90;;;;;;5032907;28;20128;-54
2023/09/07 10:07:05;;;;;;;36.13;30.63;;;23.20;99.90;;;;;;5032399;28;20495;-56
2023/09/07 10:09:32;;;;;;;37.15;29.63;;;23.30;99.90;;;;;;5033071;28;20048;-52
2023/09/07 10:12:03;;;;;;;35.72;26.98;;;23.40;99.90;;;;;;5032524;28;20037;-52
2023/09/07 10:14:30;;;;;;;30.85;26.33;;;23.40;99.90;;;;;;5032691;28;20048;-49
2023/09/07 10:17:03;;;;;;;33.38;25.42;;;23.60;99.90;;;;;;5032646;28;20052;-50
2023/09/07 10:19:30;;;;;;;33.47;27.73;;;23.60;99.90;;;;;;5031801;28;20543;-58
2023/09/07 10:21:57;;;;;;;27.08;22.35;;;23.70;99.90;;;;;;5032675;28;20459;-54
2023/09/07 10:24:24;;;;;;;27.17;20.00;;;23.70;99.90;;;;;;5032556;28;20497;-53
2023/09/07 10:26:51;;;;;;;35.20;24.45;;;23.80;99.90;;;;;;5032578;28;20042;-57
2023/09/07 10:29:19;;;;;;;40.15;25.50;;;23.90;99.90;;;;;;5032910;28;20042;-56
2023/09/07 10:31:46;;;;;;;26.75;22.35;;;24.00;99.90;;;;;;5032741;28;20104;-55
2023/09/07 10:34:20;;;;;;;34.27;22.40;;;24.00;99.90;;;;;;5032589;28;20049;-57
2023/09/07 10:36:47;;;;;;;30.83;22.35;;;24.10;99.90;;;;;;5032636;28;20625;-58
2023/09/07 10:39:14;;;;;;;31.85;20.95;;;24.20;99.90;;;;;;5032589;28;20034;-56
2023/09/07 10:41:45;;;;;;;24.75;19.17;;;24.30;99.90;;;;;;5032350;28;20518;-59
2023/09/07 10:44:13;;;;;;;27.33;19.50;;;24.30;99.90;;;;;;5032333;28;20117;-56
2023/09/07 10:46:40;;;;;;;23.58;17.90;;;24.40;99.90;;;;;;5030966;28;20049;-56
2023/09/07 10:49:07;;;;;;;24.05;19.35;;;24.40;99.90;;;;;;5032018;28;20049;-56
2023/09/07 10:51:34;;;;;;;19.75;16.63;;;24.60;99.90;;;;;;5032083;28;20108;-59
2023/09/07 10:54:01;;;;;;;20.00;14.55;;;24.60;99.90;;;;;;5032535;28;20053;-55
2023/09/07 10:56:28;;;;;;;19.23;15.18;;;24.70;99.90;;;;;;5031619;28;20046;-57
2023/09/07 10:58:54;;;;;;;18.60;16.10;;;24.70;99.90;;;;;;5032254;28;20046;-58
2023/09/07 11:01:21;;;;;;;18.75;14.50;;;24.70;99.90;;;;;;5027641;28;20034;-57
2023/09/07 11:03:48;;;;;;;21.25;14.68;;;24.80;99.90;;;;;;5031535;28;20037;-58
2023/09/07 11:06:19;;;;;;;19.48;14.95;;;24.90;99.90;;;;;;5031333;28;20046;-59
2023/09/07 11:08:45;;;;;;;15.70;14.00;;;24.90;99.90;;;;;;5029328;28;20061;-60
2023/09/07 11:11:12;;;;;;;15.60;11.77;;;25.00;99.90;;;;;;5027929;28;20046;-57
2023/09/07 11:13:39;;;;;;;13.35;11.95;;;25.00;99.90;;;;;;5033010;28;20136;-56
2023/09/07 11:16:06;;;;;;;19.65;12.38;;;25.10;99.90;;;;;;5035520;28;20030;-54
2023/09/07 11:18:33;;;;;;;16.58;14.02;;;25.20;99.90;;;;;;5035419;28;20510;-58
2023/09/07 11:21:02;;;;;;;15.77;12.80;;;25.30;99.90;;;;;;5034084;28;20041;-59
2023/09/07 11:23:29;;;;;;;14.05;10.85;;;25.30;99.90;;;;;;5017464;28;20426;-59
2023/09/07 11:25:57;;;;;;;19.80;11.55;;;25.40;99.90;;;;;;5035626;28;20037;-51
2023/09/07 11:28:24;;;;;;;15.88;11.95;;;25.50;99.90;;;;;;5034852;28;20507;-54
2023/09/07 11:30:51;;;;;;;14.63;10.50;;;25.50;99.90;;;;;;5035461;28;20052;-57
2023/09/07 11:33:18;;;;;;;15.02;10.98;;;25.50;99.90;;;;;;5033253;28;20432;-55
2023/09/07 11:35:45;;;;;;;14.25;11.35;;;25.60;99.90;;;;;;5035371;28;20038;-58
2023/09/07 11:38:12;;;;;;;17.02;10.68;;;25.70;99.90;;;;;;5035393;28;20037;-60
2023/09/07 11:40:39;;;;;;;13.82;11.45;;;25.70;99.90;;;;;;5034367;28;20124;-53
2023/09/07 11:43:06;;;;;;;18.02;10.45;;;25.70;99.90;;;;;;5034217;28;20488;-54
2023/09/07 11:45:32;;;;;;;15.00;11.38;;;25.70;99.90;;;;;;5035322;28;20063;-55
2023/09/07 11:47:59;;;;;;;12.80;8.85;;;25.80;99.90;;;;;;5034502;28;20080;-58
2023/09/07 11:50:29;;;;;;;14.77;9.73;;;25.80;99.90;;;;;;5034997;28;20125;-56
2023/09/07 11:52:56;;;;;;;14.57;8.35;;;25.80;99.90;;;;;;5034954;28;20065;-59
2023/09/07 11:55:23;;;;;;;12.65;8.75;;;25.90;99.90;;;;;;5035122;28;20037;-57
2023/09/07 11:57:51;;;;;;;12.85;7.93;;;26.10;99.90;;;;;;5034240;28;20099;-53
2023/09/07 12:00:18;;;;;;;15.23;7.90;;;26.20;99.90;;;;;;5034456;28;20052;-60
2023/09/07 12:02:45;;;;;;;14.60;8.60;;;26.30;99.90;;;;;;5033632;28;20511;-60
2023/09/07 12:05:14;;;;;;;14.07;8.63;;;26.40;99.80;;;;;;5034452;28;20050;-59
2023/09/07 12:07:42;;;;;;;10.60;8.27;;;26.40;99.70;;;;;;5034395;28;20056;-58
2023/09/07 12:10:13;;;;;;;13.68;9.15;;;26.40;99.40;;;;;;5034622;28;20428;-54
2023/09/07 12:12:40;;;;;;;11.60;6.90;;;26.40;98.80;;;;;;5034149;28;20125;-61
2023/09/07 12:15:07;;;;;;;9.20;6.50;;;26.50;99.20;;;;;;5034393;28;20071;-60
2023/09/07 12:17:33;;;;;;;11.48;6.60;;;26.60;98.90;;;;;;5034114;28;20037;-59
2023/09/07 12:20:00;;;;;;;8.20;5.57;;;26.70;97.70;;;;;;5034466;28;20037;-59
2023/09/07 12:22:27;;;;;;;8.00;5.20;;;26.70;97.80;;;;;;5034468;28;20105;-55
2023/09/07 12:24:54;;;;;;;9.00;5.00;;;26.70;98.10;;;;;;5033454;28;20041;-60